This is the latest recevied weather packets stored in our database for station/object LX2ZZ-13. If no packets are shown the sender has not sent any weather packets the latest 10 day(s).
| Time | Temp. | Humidity | Pressure | Rain* | Wind** | Luminosity | Snow |
|---|---|---|---|---|---|---|---|
| 1777911351 | 12.78° C | 96% | 1012.5 hPa | 1.02 mm | - | - | - |
| 1777908356 | 12.78° C | 94% | 1012.6 hPa | 1.02 mm | - | - | - |
| 1777907130 | 12.78° C | 93% | 1013 hPa | 1.02 mm | - | - | - |
| 1777901782 | 13.33° C | 86% | 1013.3 hPa | 0 mm | - | - | - |
| 1777899349 | 15° C | 76% | 1013.3 hPa | 0 mm | - | - | - |
| 1777893921 | 16.67° C | 75% | 1013.6 hPa | 0.25 mm | - | - | - |
| 1777889760 | 14.44° C | 85% | 1014.1 hPa | 0.25 mm | - | - | - |
| 1777884332 | 15° C | 78% | 1013.8 hPa | 0 mm | - | - | - |
| 1777872933 | 8.89° C | 99% | 1013.1 hPa | 0 mm | - | - | - |
| 1777868168 | 6.67° C | 99% | 1012.9 hPa | 0 mm | - | - | - |
| 1777866962 | 6.11° C | 99% | 1013 hPa | 0 mm | - | - | - |
| 1777853150 | 6.67° C | 99% | 1013 hPa | 0 mm | - | - | - |
| 1777851944 | 6.67° C | 98% | 1012.7 hPa | 0 mm | - | - | - |
| 1777847722 | 7.78° C | 98% | 1013.2 hPa | 0 mm | - | - | - |
| 1777843560 | 9.44° C | 97% | 1013 hPa | 0 mm | - | - | - |
| 1777842977 | 8.89° C | 96% | 1012.8 hPa | 0 mm | - | - | - |
| 1777842374 | 8.89° C | 96% | 1013 hPa | 0 mm | - | - | - |
| 1777829788 | 15° C | 73% | 1012.6 hPa | 0 mm | - | - | - |
| 1777827939 | 15° C | 70% | 1012.7 hPa | 0 mm | - | - | - |
| 1777826733 | 15.56° C | 69% | 1012.7 hPa | 0 mm | - | - | - |
| 1777826130 | 15.56° C | 69% | 1012.9 hPa | 0 mm | - | - | - |
| 1777823194 | 16.11° C | 71% | 1013 hPa | 0 mm | - | - | - |
| 1777822571 | 15° C | 77% | 1013.1 hPa | 0 mm | - | - | - |
| 1777821365 | 15° C | 82% | 1013.2 hPa | 0 mm | - | - | - |
| 1777820159 | 14.44° C | 83% | 1013.5 hPa | 0 mm | - | - | - |
* Rain latest hour (hover to see other rain measurements)
** Current wind speed in m/s (hover to see current wind gust speed)